Hannacroix, NY (12087)

3:53 PM EST on January 30, 2015 (GMT -0500)
KNYGREEN19 | Change Station
CLOSE
Current Station
Personal Weather Station
Location: Greenville, NY
Elevation: 835 ft
Nearby Weather Stations
Active Advisory: Wind Chill Advisory Active Notice: Public Information Statement

Elev 835 ft 42.41 °N, 74.01 °W | Updated 3 minutes ago

Overcast
Overcast
26.1 °F
Feels Like 17 °F
N
9.0
Wind Variable Wind from WNW
Gusts 22.0 mph

Today
High -- | Low -- °F
--% Chance of Precip.
Yesterday
High -- | Low -- °F
Precip. -- in
7:11 AM 5:06 PM
Waxing Gibbous, 85% visible
Pressure 29.87 in
Visibility 10.0 miles
Clouds Few 3300 ft
Mostly Cloudy 5500 ft
Mostly Cloudy 8500 ft
Mostly Cloudy 20000 ft
Windchill 17 °F
Dew Point 18 °F
Humidity 71%
Rainfall 0.00 in
Snow Depth Not available.
UV 1 out of 12
Pollen .10 out of 12
Air Quality Not available.
Flu Activity Not available.
METAR KALB 301951Z 30023G29KT 10SM FEW033 BKN055 BKN085 BKN200 M02/M09 A2986 RMK AO2 PK WND 30029/1907 SLP114 DRSN VCSH E-SE T10221094

More Conditions Fewer Conditions

Pressure 29.87 in
Visibility 10.0 miles
Clouds Few 3300 ft
Mostly Cloudy 5500 ft
Mostly Cloudy 8500 ft
Mostly Cloudy 20000 ft
Windchill 17 °F
Dew Point 18 °F
Humidity 71%
Rainfall 0.00 in
Snow Depth Not available.
UV 1 out of 12
Pollen .10 out of 12
Air Quality Not available.
Flu Activity Not available.
METAR KALB 301951Z 30023G29KT 10SM FEW033 BKN055 BKN085 BKN200 M02/M09 A2986 RMK AO2 PK WND 30029/1907 SLP114 DRSN VCSH E-SE T10221094

More Conditions Fewer Conditions

10-Day Weather Forecast

Almanac

Astronomy

Jan. 30, 2015 Rise Set
Actual Time
Civil Twilight
Nautical Twilight
Astronomical Twilight
Moon
Length of Visible Light
Length of Day
Tomorrow will be .
, % of the Moon is Illuminated

Today's Extremes

State Highs State Lows

Community

WunderPhotos

Upload Photos

1,791,891 photos uploaded!

WunderBlogs® & News

Nearby

Air Quality

  Air Quality AQ Index Pollutant
Not available.

Snow Depth

Station Depth Elevation

Earthquake Activity

City Distance Mag. Time & Date
Minimum magnitude displayed is 2.5.

Coastal Water Temperatures

Place Temperature

Nearby Weather Stations